Time;durP1;ratioP1;P1;durP2;ratioP2;P2;SDS_P1;SDS_P2;PMS_P1;PMS_P2;Temp;Humidity;BMP_temperature;BMP_pressure;BME280_temperature;BME280_humidity;BME280_pressure;Samples;Min_cycle;Max_cycle;Signal;HPM_P1;HPM_P2
2024/01/30 00:00:08;;;;;;;18.42;10.98;;;;;;;;;;5074734;28;20024;-27
2024/01/30 00:02:33;;;;;;;19.13;11.05;;;;;;;;;;5073969;28;20059;-27
2024/01/30 00:04:58;;;;;;;20.27;11.20;;;;;;;;;;5074387;28;20074;-28
2024/01/30 00:07:23;;;;;;;23.77;10.90;;;;;;;;;;5074000;28;20096;-27
2024/01/30 00:09:49;;;;;;;20.63;11.60;;;;;;;;;;5074537;28;20250;-27
2024/01/30 00:12:14;;;;;;;19.83;11.40;;;;;;;;;;5074162;28;20289;-28
2024/01/30 00:14:41;;;;;;;21.90;11.33;;;;;;;;;;5073982;28;20074;-27
2024/01/30 00:17:06;;;;;;;18.55;11.32;;;;;;;;;;5073831;28;20273;-27
2024/01/30 00:19:31;;;;;;;20.93;11.23;;;;;;;;;;5073907;28;20024;-27
2024/01/30 00:21:57;;;;;;;21.27;10.80;;;;;;;;;;5073760;28;20290;-27
2024/01/30 00:24:22;;;;;;;16.48;10.73;;;;;;;;;;5073809;28;20032;-27
2024/01/30 00:26:47;;;;;;;19.30;11.67;;;;;;;;;;5074227;28;20023;-30
2024/01/30 00:29:19;;;;;;;19.63;11.17;;;;;;;;;;5073673;28;20282;-27
2024/01/30 00:31:44;;;;;;;22.15;11.10;;;;;;;;;;5073965;28;20259;-28
2024/01/30 00:34:10;;;;;;;20.88;11.20;;;;;;;;;;5074336;28;20016;-28
2024/01/30 00:36:35;;;;;;;19.65;10.95;;;;;;;;;;5073668;28;20431;-28
2024/01/30 00:39:00;;;;;;;20.92;10.77;;;;;;;;;;5073933;28;20017;-28
2024/01/30 00:41:26;;;;;;;20.55;10.82;;;;;;;;;;5073838;28;20021;-27
2024/01/30 00:43:51;;;;;;;19.15;11.40;;;;;;;;;;5072230;28;20025;-28
2024/01/30 00:46:17;;;;;;;17.90;10.45;;;;;;;;;;5073475;28;20498;-27
2024/01/30 00:48:42;;;;;;;19.05;10.50;;;;;;;;;;5073737;28;20414;-28
2024/01/30 00:51:07;;;;;;;27.30;10.50;;;;;;;;;;5073716;28;20055;-28
2024/01/30 00:53:32;;;;;;;19.17;10.77;;;;;;;;;;5073707;28;20013;-27
2024/01/30 00:55:58;;;;;;;19.97;10.77;;;;;;;;;;5073443;28;20380;-28
2024/01/30 00:58:23;;;;;;;19.43;10.70;;;;;;;;;;5073919;28;20343;-28
2024/01/30 01:00:48;;;;;;;15.30;9.87;;;;;;;;;;5073328;28;20288;-27
2024/01/30 01:03:13;;;;;;;20.75;11.00;;;;;;;;;;5073499;28;20348;-27
2024/01/30 01:05:39;;;;;;;18.70;10.32;;;;;;;;;;5073654;28;20070;-28
2024/01/30 01:08:04;;;;;;;19.30;10.05;;;;;;;;;;5073499;28;20020;-28
2024/01/30 01:10:29;;;;;;;18.13;10.35;;;;;;;;;;5080211;28;20440;-27
2024/01/30 01:12:54;;;;;;;19.27;10.05;;;;;;;;;;5080083;28;20345;-28
2024/01/30 01:15:20;;;;;;;17.63;9.82;;;;;;;;;;5080173;28;20069;-28
2024/01/30 01:17:45;;;;;;;17.00;9.60;;;;;;;;;;5080169;28;20048;-27
2024/01/30 01:20:11;;;;;;;21.90;9.98;;;;;;;;;;5080415;28;20255;-27
2024/01/30 01:22:37;;;;;;;17.10;9.98;;;;;;;;;;5080320;28;20371;-28
2024/01/30 01:25:03;;;;;;;16.02;9.90;;;;;;;;;;5079814;28;20019;-28
2024/01/30 01:27:28;;;;;;;19.55;9.65;;;;;;;;;;5079801;28;20021;-28
2024/01/30 01:29:53;;;;;;;25.33;10.20;;;;;;;;;;5079788;28;20013;-27
2024/01/30 01:32:19;;;;;;;14.93;9.55;;;;;;;;;;5080325;28;20095;-27
2024/01/30 01:34:44;;;;;;;15.52;9.35;;;;;;;;;;5080018;28;20154;-28
2024/01/30 01:37:09;;;;;;;16.07;9.87;;;;;;;;;;5079681;28;20016;-27
2024/01/30 01:39:34;;;;;;;16.88;9.27;;;;;;;;;;5079683;28;20259;-28
2024/01/30 01:41:59;;;;;;;21.40;9.52;;;;;;;;;;5080214;28;20021;-28
2024/01/30 01:44:25;;;;;;;16.33;9.48;;;;;;;;;;5079694;28;20048;-28
2024/01/30 01:46:51;;;;;;;18.30;9.63;;;;;;;;;;5079560;28;20111;-27
2024/01/30 01:49:16;;;;;;;16.48;9.02;;;;;;;;;;5079610;28;20354;-28
2024/01/30 01:51:41;;;;;;;18.27;9.43;;;;;;;;;;5079835;28;20035;-28
2024/01/30 01:54:07;;;;;;;16.25;9.48;;;;;;;;;;5079800;28;20020;-28
2024/01/30 01:56:33;;;;;;;15.95;9.23;;;;;;;;;;5079829;28;20026;-28
2024/01/30 01:59:00;;;;;;;21.25;9.98;;;;;;;;;;5079776;28;20024;-27
2024/01/30 02:01:25;;;;;;;17.25;10.10;;;;;;;;;;5079499;28;20082;-27
2024/01/30 02:03:51;;;;;;;15.48;9.23;;;;;;;;;;5079280;28;20479;-27
2024/01/30 02:06:16;;;;;;;18.17;9.10;;;;;;;;;;5079902;28;20028;-28
2024/01/30 02:08:42;;;;;;;17.50;9.05;;;;;;;;;;5079449;28;20016;-27
2024/01/30 02:11:08;;;;;;;17.65;9.15;;;;;;;;;;5079357;28;20104;-27
2024/01/30 02:13:33;;;;;;;19.50;10.20;;;;;;;;;;5079400;28;20017;-28
2024/01/30 02:15:58;;;;;;;15.52;9.85;;;;;;;;;;5079364;28;20025;-27
2024/01/30 02:18:23;;;;;;;14.53;9.53;;;;;;;;;;5079334;28;20345;-28
2024/01/30 02:20:48;;;;;;;16.57;9.47;;;;;;;;;;5077048;28;20330;-27
2024/01/30 02:23:15;;;;;;;18.63;9.15;;;;;;;;;;5076172;28;20304;-28
2024/01/30 02:25:49;;;;;;;17.40;9.07;;;;;;;;;;5076409;28;20025;-27
2024/01/30 02:28:14;;;;;;;16.35;9.30;;;;;;;;;;5076623;28;20074;-31
2024/01/30 02:30:40;;;;;;;16.10;9.45;;;;;;;;;;5076573;28;20028;-27
2024/01/30 02:33:05;;;;;;;17.83;9.35;;;;;;;;;;5076267;28;20027;-28
2024/01/30 02:35:30;;;;;;;18.02;9.52;;;;;;;;;;5076193;28;20017;-27
2024/01/30 02:37:56;;;;;;;15.57;9.02;;;;;;;;;;5076418;28;20367;-28
2024/01/30 02:40:21;;;;;;;15.45;9.02;;;;;;;;;;5075803;28;20095;-27
2024/01/30 02:42:46;;;;;;;16.53;9.80;;;;;;;;;;5075789;28;20017;-27
2024/01/30 02:45:12;;;;;;;16.30;10.02;;;;;;;;;;5076603;28;20278;-28
2024/01/30 02:47:37;;;;;;;15.55;9.50;;;;;;;;;;5075522;28;20023;-27
2024/01/30 02:50:03;;;;;;;17.65;9.73;;;;;;;;;;5076126;28;20017;-27
2024/01/30 02:52:28;;;;;;;18.52;9.73;;;;;;;;;;5075909;28;20024;-28
2024/01/30 02:54:53;;;;;;;16.00;9.40;;;;;;;;;;5075630;28;20357;-28
2024/01/30 02:57:18;;;;;;;18.30;10.57;;;;;;;;;;5076017;28;20328;-28
2024/01/30 02:59:44;;;;;;;17.63;9.57;;;;;;;;;;5075485;28;20741;-27
2024/01/30 03:02:09;;;;;;;16.17;10.00;;;;;;;;;;5073959;28;20294;-28
2024/01/30 03:04:34;;;;;;;22.43;10.43;;;;;;;;;;5075410;28;20730;-28
2024/01/30 03:06:59;;;;;;;19.00;9.80;;;;;;;;;;5075843;28;20363;-27
2024/01/30 03:09:24;;;;;;;21.33;10.88;;;;;;;;;;5075469;28;20266;-27
2024/01/30 03:11:50;;;;;;;21.35;10.95;;;;;;;;;;5075457;28;20089;-27
2024/01/30 03:14:15;;;;;;;24.63;11.95;;;;;;;;;;5075769;28;20079;-28
2024/01/30 03:16:40;;;;;;;20.53;10.80;;;;;;;;;;5075147;28;20025;-28
2024/01/30 03:19:07;;;;;;;19.75;11.10;;;;;;;;;;5075089;28;20282;-27
2024/01/30 03:21:32;;;;;;;18.92;10.60;;;;;;;;;;5075240;28;20486;-28
2024/01/30 03:23:57;;;;;;;18.97;10.40;;;;;;;;;;5075584;28;20020;-27
2024/01/30 03:26:23;;;;;;;16.20;10.10;;;;;;;;;;5074789;28;20622;-28
2024/01/30 03:28:48;;;;;;;20.13;10.27;;;;;;;;;;5075493;28;20013;-27
2024/01/30 03:31:14;;;;;;;19.57;10.70;;;;;;;;;;5075442;28;20247;-28
2024/01/30 03:33:39;;;;;;;17.27;9.88;;;;;;;;;;5073643;28;20259;-28
2024/01/30 03:36:05;;;;;;;18.40;9.77;;;;;;;;;;5074797;28;20012;-27
2024/01/30 03:38:32;;;;;;;15.43;9.45;;;;;;;;;;5074649;28;20328;-27
2024/01/30 03:40:57;;;;;;;21.58;9.45;;;;;;;;;;5074574;28;20024;-28
2024/01/30 03:43:22;;;;;;;15.53;8.93;;;;;;;;;;5075193;28;20031;-28
2024/01/30 03:45:47;;;;;;;15.70;9.97;;;;;;;;;;5074555;28;20255;-27
2024/01/30 03:48:13;;;;;;;16.63;9.67;;;;;;;;;;5074459;28;20300;-27
2024/01/30 03:50:38;;;;;;;14.60;8.87;;;;;;;;;;5074731;28;20265;-27
2024/01/30 03:53:03;;;;;;;23.40;9.18;;;;;;;;;;5074743;28;20691;-27
2024/01/30 03:55:29;;;;;;;14.57;8.98;;;;;;;;;;5074602;28;20016;-28
2024/01/30 03:57:54;;;;;;;16.53;8.97;;;;;;;;;;5074342;28;20349;-27
2024/01/30 04:00:19;;;;;;;16.20;9.07;;;;;;;;;;5074279;28;20396;-27
2024/01/30 04:02:44;;;;;;;12.57;8.70;;;;;;;;;;5074073;28;20283;-28
2024/01/30 04:05:10;;;;;;;13.85;8.45;;;;;;;;;;5074188;28;20246;-27
2024/01/30 04:07:35;;;;;;;14.30;8.57;;;;;;;;;;5074678;28;20107;-27
2024/01/30 04:10:00;;;;;;;15.67;9.00;;;;;;;;;;5074651;28;20013;-28
2024/01/30 04:12:25;;;;;;;15.32;8.90;;;;;;;;;;5073987;28;20294;-27
2024/01/30 04:14:50;;;;;;;15.15;8.85;;;;;;;;;;5073968;28;20048;-28
2024/01/30 04:17:16;;;;;;;18.37;8.67;;;;;;;;;;5074342;28;20078;-27
2024/01/30 04:19:41;;;;;;;15.47;9.00;;;;;;;;;;5073886;28;20729;-27
2024/01/30 04:22:06;;;;;;;18.37;9.43;;;;;;;;;;5073759;28;20305;-28
2024/01/30 04:24:31;;;;;;;17.13;9.60;;;;;;;;;;5074319;28;20330;-27
2024/01/30 04:26:56;;;;;;;21.83;9.50;;;;;;;;;;5073699;28;20078;-27
2024/01/30 04:29:22;;;;;;;20.30;9.20;;;;;;;;;;5074269;28;20251;-28
2024/01/30 04:31:47;;;;;;;19.70;9.95;;;;;;;;;;5073992;28;20643;-28
2024/01/30 04:34:12;;;;;;;18.13;10.07;;;;;;;;;;5073945;28;20023;-28
2024/01/30 04:36:38;;;;;;;18.77;10.07;;;;;;;;;;5073669;28;20342;-27
2024/01/30 04:39:03;;;;;;;17.57;9.43;;;;;;;;;;5073721;28;20255;-28
2024/01/30 04:41:31;;;;;;;16.98;9.63;;;;;;;;;;5073834;28;20266;-28
2024/01/30 04:43:56;;;;;;;20.98;10.90;;;;;;;;;;5073483;28;20529;-28
2024/01/30 04:46:21;;;;;;;17.23;9.40;;;;;;;;;;5074030;28;20020;-28
2024/01/30 04:48:47;;;;;;;17.23;9.68;;;;;;;;;;5072538;28;20691;-28
2024/01/30 04:51:12;;;;;;;15.18;9.38;;;;;;;;;;5073528;28;20017;-28
2024/01/30 04:53:39;;;;;;;16.33;9.20;;;;;;;;;;5073774;28;20024;-28
2024/01/30 04:56:04;;;;;;;17.70;10.07;;;;;;;;;;5073689;28;20263;-28
2024/01/30 04:58:29;;;;;;;16.60;9.38;;;;;;;;;;5073341;28;20086;-28
2024/01/30 05:00:55;;;;;;;17.02;10.05;;;;;;;;;;5073362;28;20025;-27
2024/01/30 05:03:22;;;;;;;18.52;9.85;;;;;;;;;;5073178;28;20048;-27
2024/01/30 05:05:47;;;;;;;19.17;10.13;;;;;;;;;;5073567;28;20048;-28
2024/01/30 05:08:12;;;;;;;18.30;9.68;;;;;;;;;;5073233;28;20455;-27
2024/01/30 05:10:37;;;;;;;17.70;9.87;;;;;;;;;;5073292;28;20116;-28
2024/01/30 05:13:03;;;;;;;20.83;10.03;;;;;;;;;;5073751;28;20301;-28
2024/01/30 05:15:28;;;;;;;15.40;9.63;;;;;;;;;;5073598;28;20808;-27
2024/01/30 05:17:53;;;;;;;16.87;9.17;;;;;;;;;;5073826;28;20062;-27
2024/01/30 05:20:20;;;;;;;21.73;9.67;;;;;;;;;;5073798;28;20337;-28
2024/01/30 05:22:45;;;;;;;23.40;10.23;;;;;;;;;;5073469;28;20752;-28
2024/01/30 05:25:10;;;;;;;17.40;9.27;;;;;;;;;;5073185;28;20024;-28
2024/01/30 05:27:36;;;;;;;20.45;10.10;;;;;;;;;;5073297;28;20283;-28
2024/01/30 05:30:01;;;;;;;18.52;9.68;;;;;;;;;;5073439;28;20040;-28
2024/01/30 05:32:26;;;;;;;17.00;9.52;;;;;;;;;;5073133;28;20459;-28
2024/01/30 05:34:51;;;;;;;15.20;8.93;;;;;;;;;;5073625;28;20012;-28
2024/01/30 05:37:17;;;;;;;16.10;9.70;;;;;;;;;;5073210;28;20658;-28
2024/01/30 05:39:42;;;;;;;14.00;8.40;;;;;;;;;;5073343;28;20399;-28
2024/01/30 05:42:08;;;;;;;21.33;9.73;;;;;;;;;;5073317;28;20341;-28
2024/01/30 05:44:33;;;;;;;16.20;8.93;;;;;;;;;;5073253;28;20016;-28
2024/01/30 05:46:58;;;;;;;14.27;9.13;;;;;;;;;;5072872;28;20771;-28
2024/01/30 05:49:23;;;;;;;15.18;8.85;;;;;;;;;;5073558;28;20247;-28
2024/01/30 05:51:48;;;;;;;17.60;9.00;;;;;;;;;;5072925;28;20024;-28
2024/01/30 05:54:13;;;;;;;14.27;8.77;;;;;;;;;;5073137;28;20251;-28
2024/01/30 05:56:39;;;;;;;17.40;9.27;;;;;;;;;;5075076;28;20269;-28
2024/01/30 05:59:04;;;;;;;16.23;9.07;;;;;;;;;;5077200;28;20247;-28
2024/01/30 06:01:29;;;;;;;17.63;8.70;;;;;;;;;;5076554;28;20816;-28
2024/01/30 06:03:55;;;;;;;15.32;9.63;;;;;;;;;;5076396;28;20055;-28
2024/01/30 06:06:20;;;;;;;14.77;8.93;;;;;;;;;;5076331;28;20502;-28
2024/01/30 06:08:45;;;;;;;14.33;8.40;;;;;;;;;;5076452;28;20027;-28
2024/01/30 06:11:11;;;;;;;15.98;9.00;;;;;;;;;;5076226;28;20294;-28
2024/01/30 06:13:37;;;;;;;16.90;9.18;;;;;;;;;;5076257;28;20066;-28
2024/01/30 06:16:02;;;;;;;15.18;8.93;;;;;;;;;;5076544;28;20017;-28
2024/01/30 06:18:29;;;;;;;14.50;8.90;;;;;;;;;;5076473;28;20028;-27
2024/01/30 06:20:54;;;;;;;13.23;8.20;;;;;;;;;;5076443;28;20067;-28
2024/01/30 06:23:19;;;;;;;16.50;8.70;;;;;;;;;;5076174;28;20021;-28
2024/01/30 06:25:44;;;;;;;15.73;8.65;;;;;;;;;;5076387;28;20028;-28
2024/01/30 06:28:10;;;;;;;21.83;9.03;;;;;;;;;;5076559;28;20103;-28
2024/01/30 06:30:35;;;;;;;15.05;8.48;;;;;;;;;;5076335;28;20259;-27
2024/01/30 06:33:00;;;;;;;13.98;8.65;;;;;;;;;;5076171;28;20074;-28
2024/01/30 06:35:25;;;;;;;15.83;8.27;;;;;;;;;;5076463;28;20082;-28
2024/01/30 06:37:50;;;;;;;17.37;8.80;;;;;;;;;;5076470;28;20258;-28
2024/01/30 06:40:16;;;;;;;15.95;7.75;;;;;;;;;;5075835;28;20661;-28
2024/01/30 06:42:41;;;;;;;15.73;8.67;;;;;;;;;;5075813;28;20020;-28
2024/01/30 06:45:07;;;;;;;15.33;8.07;;;;;;;;;;5075766;28;20269;-28
2024/01/30 06:47:33;;;;;;;15.68;8.70;;;;;;;;;;5075876;28;20290;-28
2024/01/30 06:49:58;;;;;;;14.43;8.20;;;;;;;;;;5075666;28;20460;-28
2024/01/30 06:52:23;;;;;;;15.57;8.32;;;;;;;;;;5076667;28;20258;-28
2024/01/30 06:54:48;;;;;;;16.60;8.38;;;;;;;;;;5075505;28;20009;-28
2024/01/30 06:57:14;;;;;;;17.75;8.48;;;;;;;;;;5075835;28;20027;-28
2024/01/30 06:59:43;;;;;;;13.55;8.20;;;;;;;;;;5075751;28;20070;-28
2024/01/30 07:02:08;;;;;;;13.25;8.23;;;;;;;;;;5075529;28;20127;-28
2024/01/30 07:04:33;;;;;;;15.90;8.30;;;;;;;;;;5075924;28;20059;-28
2024/01/30 07:06:58;;;;;;;15.77;8.33;;;;;;;;;;5075520;28;20086;-28
2024/01/30 07:09:24;;;;;;;17.60;8.80;;;;;;;;;;5075635;28;20737;-28
2024/01/30 07:11:49;;;;;;;17.27;8.45;;;;;;;;;;5075393;28;20455;-28
2024/01/30 07:14:14;;;;;;;16.77;8.37;;;;;;;;;;5075543;28;20020;-28
2024/01/30 07:16:39;;;;;;;18.85;8.32;;;;;;;;;;5075145;28;20251;-28
2024/01/30 07:19:04;;;;;;;15.27;8.00;;;;;;;;;;5075145;28;20017;-28
2024/01/30 07:21:29;;;;;;;19.57;8.97;;;;;;;;;;5075036;28;20266;-28
2024/01/30 07:23:55;;;;;;;16.42;8.73;;;;;;;;;;5074939;28;20257;-28
2024/01/30 07:26:20;;;;;;;17.00;8.38;;;;;;;;;;5075137;28;20027;-28
2024/01/30 07:28:45;;;;;;;20.08;9.52;;;;;;;;;;5074905;28;20028;-28
2024/01/30 07:31:11;;;;;;;14.38;7.40;;;;;;;;;;5075188;28;20020;-28
2024/01/30 07:33:36;;;;;;;12.67;7.60;;;;;;;;;;5074721;28;20020;-28
2024/01/30 07:36:01;;;;;;;18.97;8.00;;;;;;;;;;5074994;28;20329;-28
2024/01/30 07:38:26;;;;;;;18.13;7.93;;;;;;;;;;5074638;28;20391;-28
2024/01/30 07:40:51;;;;;;;15.23;7.57;;;;;;;;;;5074662;28;20464;-28
2024/01/30 07:43:17;;;;;;;25.38;8.07;;;;;;;;;;5074521;28;20266;-28
2024/01/30 07:45:42;;;;;;;14.63;7.50;;;;;;;;;;5075102;28;20017;-28
2024/01/30 07:48:07;;;;;;;18.10;7.73;;;;;;;;;;5074403;28;20785;-28
2024/01/30 07:50:32;;;;;;;17.80;7.90;;;;;;;;;;5074149;28;20258;-28
2024/01/30 07:52:59;;;;;;;15.13;7.78;;;;;;;;;;5074213;28;20066;-28
2024/01/30 07:55:27;;;;;;;15.38;7.05;;;;;;;;;;5074206;28;20023;-28
2024/01/30 07:57:52;;;;;;;15.73;7.93;;;;;;;;;;5074232;28;20039;-28
2024/01/30 08:00:18;;;;;;;15.65;7.13;;;;;;;;;;5073792;28;20024;-28
2024/01/30 08:02:55;;;;;;;15.07;7.60;;;;;;;;;;5074301;28;20435;-28
2024/01/30 08:05:22;;;;;;;15.70;7.95;;;;;;;;;;5074090;28;20028;-28
2024/01/30 08:07:47;;;;;;;12.85;6.85;;;;;;;;;;5074265;28;20070;-28
2024/01/30 08:10:15;;;;;;;18.55;8.10;;;;;;;;;;5074289;28;20013;-28
2024/01/30 08:12:41;;;;;;;16.88;7.93;;;;;;;;;;5073863;28;20031;-28
2024/01/30 08:15:06;;;;;;;19.60;7.38;;;;;;;;;;5073910;28;20056;-28
2024/01/30 08:17:31;;;;;;;15.85;7.55;;;;;;;;;;5074424;28;20027;-28
2024/01/30 08:19:57;;;;;;;17.57;7.50;;;;;;;;;;5073306;28;20047;-28
2024/01/30 08:22:22;;;;;;;14.90;7.65;;;;;;;;;;5074099;28;20349;-28
2024/01/30 08:24:47;;;;;;;15.97;7.63;;;;;;;;;;5074303;28;20017;-28
2024/01/30 08:27:12;;;;;;;15.33;7.50;;;;;;;;;;5073771;28;20743;-28
2024/01/30 08:29:37;;;;;;;25.25;7.78;;;;;;;;;;5074019;28;20263;-28
2024/01/30 08:32:04;;;;;;;15.98;7.60;;;;;;;;;;5073762;28;20380;-28
2024/01/30 08:34:29;;;;;;;14.30;7.35;;;;;;;;;;5074245;28;20017;-28
2024/01/30 08:36:54;;;;;;;18.95;7.78;;;;;;;;;;5073872;28;20024;-28
2024/01/30 08:39:19;;;;;;;19.77;8.30;;;;;;;;;;5073823;28;20023;-28
2024/01/30 08:41:45;;;;;;;16.98;7.35;;;;;;;;;;5073676;28;20012;-28
2024/01/30 08:44:11;;;;;;;15.50;7.72;;;;;;;;;;5073499;28;20103;-28
2024/01/30 08:46:36;;;;;;;25.23;8.38;;;;;;;;;;5073739;28;20020;-28
2024/01/30 08:49:01;;;;;;;14.48;7.50;;;;;;;;;;5073491;28;20482;-28
2024/01/30 08:51:26;;;;;;;18.27;7.43;;;;;;;;;;5073396;28;20016;-27
2024/01/30 08:53:53;;;;;;;15.67;7.50;;;;;;;;;;5073443;28;20251;-28
2024/01/30 08:56:18;;;;;;;16.02;7.25;;;;;;;;;;5073111;28;20247;-28
2024/01/30 08:58:44;;;;;;;15.37;7.43;;;;;;;;;;5073896;28;20023;-28
2024/01/30 09:01:09;;;;;;;16.50;7.47;;;;;;;;;;5073307;28;20255;-28
2024/01/30 09:03:34;;;;;;;20.67;8.10;;;;;;;;;;5073361;28;20355;-28
2024/01/30 09:05:59;;;;;;;13.80;7.27;;;;;;;;;;5073238;28;20051;-28
2024/01/30 09:08:24;;;;;;;18.52;7.88;;;;;;;;;;5073225;28;20270;-28
2024/01/30 09:10:50;;;;;;;19.53;7.57;;;;;;;;;;5073554;28;20062;-28
2024/01/30 09:13:15;;;;;;;19.15;7.50;;;;;;;;;;5073138;28;20263;-27
2024/01/30 09:15:40;;;;;;;16.50;8.00;;;;;;;;;;5073783;28;20017;-28
2024/01/30 09:18:06;;;;;;;17.17;7.68;;;;;;;;;;5073445;28;20067;-28
2024/01/30 09:20:31;;;;;;;20.90;7.70;;;;;;;;;;5073172;28;20028;-28
2024/01/30 09:22:56;;;;;;;16.57;8.00;;;;;;;;;;5073625;28;20062;-28
2024/01/30 09:25:21;;;;;;;18.67;7.87;;;;;;;;;;5073096;28;20282;-28
2024/01/30 09:27:46;;;;;;;15.60;7.23;;;;;;;;;;5073053;28;20324;-28
2024/01/30 09:30:12;;;;;;;19.07;8.03;;;;;;;;;;5075191;28;20247;-28
2024/01/30 09:32:37;;;;;;;12.30;7.32;;;;;;;;;;5077362;28;20369;-32
2024/01/30 09:35:02;;;;;;;16.60;7.87;;;;;;;;;;5077678;28;20020;-28
2024/01/30 09:37:27;;;;;;;13.55;7.50;;;;;;;;;;5075708;28;20405;-28
2024/01/30 09:39:53;;;;;;;15.57;7.65;;;;;;;;;;5076835;28;20013;-28
2024/01/30 09:42:23;;;;;;;15.47;7.37;;;;;;;;;;5076937;28;20123;-28
2024/01/30 09:44:50;;;;;;;16.20;7.88;;;;;;;;;;5077105;28;20728;-28
2024/01/30 09:47:16;;;;;;;16.52;7.95;;;;;;;;;;5076649;28;20021;-28
2024/01/30 09:49:42;;;;;;;14.55;7.55;;;;;;;;;;5076838;28;20027;-28
2024/01/30 09:52:07;;;;;;;16.52;7.82;;;;;;;;;;5076979;28;20027;-28
2024/01/30 09:54:33;;;;;;;16.10;7.55;;;;;;;;;;5076738;28;20020;-28
2024/01/30 09:56:58;;;;;;;12.80;7.28;;;;;;;;;;5076617;28;20067;-28
2024/01/30 09:59:24;;;;;;;16.88;7.70;;;;;;;;;;5076644;28;20030;-28
2024/01/30 10:01:50;;;;;;;23.85;7.43;;;;;;;;;;5076777;28;20074;-28
2024/01/30 10:04:15;;;;;;;17.63;8.23;;;;;;;;;;5076328;28;20053;-28
2024/01/30 10:06:40;;;;;;;13.50;7.55;;;;;;;;;;5076619;28;20017;-28
2024/01/30 10:09:05;;;;;;;15.73;7.88;;;;;;;;;;5076888;28;20021;-28
2024/01/30 10:11:30;;;;;;;14.50;7.70;;;;;;;;;;5076305;28;20013;-28
2024/01/30 10:13:56;;;;;;;13.98;7.78;;;;;;;;;;5076285;28;20149;-28
2024/01/30 10:16:21;;;;;;;18.27;8.60;;;;;;;;;;5076307;28;20043;-28
2024/01/30 10:18:47;;;;;;;14.40;7.97;;;;;;;;;;5076844;28;20103;-28
2024/01/30 10:21:12;;;;;;;13.63;7.32;;;;;;;;;;5076460;28;20263;-29
2024/01/30 10:23:38;;;;;;;19.40;8.20;;;;;;;;;;5076203;28;20536;-28
2024/01/30 10:26:04;;;;;;;13.88;7.90;;;;;;;;;;5076325;28;20255;-28
2024/01/30 10:28:30;;;;;;;15.32;7.97;;;;;;;;;;5076250;28;20028;-28
2024/01/30 10:31:03;;;;;;;18.27;8.85;;;;;;;;;;5075964;28;20082;-28
2024/01/30 10:33:29;;;;;;;16.08;7.05;;;;;;;;;;5076226;28;20066;-28
2024/01/30 10:35:58;;;;;;;19.55;7.28;;;;;;;;;;5075944;28;20012;-28
2024/01/30 10:38:25;;;;;;;11.60;6.10;;;;;;;;;;5075881;28;20028;-28
2024/01/30 10:40:53;;;;;;;16.15;6.00;;;;;;;;;;5075762;28;20020;-28
2024/01/30 10:43:20;;;;;;;16.88;5.35;;;;;;;;;;5075820;28;20094;-28
2024/01/30 10:45:49;;;;;;;16.00;5.30;;;;;;;;;;5075767;28;20379;-28
2024/01/30 10:48:16;;;;;;;13.77;4.72;;;;;;;;;;5075633;28;20433;-28
2024/01/30 10:50:41;;;;;;;17.40;5.53;;;;;;;;;;5076033;28;20108;-28
2024/01/30 10:53:07;;;;;;;18.02;5.07;;;;;;;;;;5075706;28;20439;-28
2024/01/30 10:55:33;;;;;;;17.15;4.80;;;;;;;;;;5075617;28;20407;-27
2024/01/30 10:57:59;;;;;;;12.43;4.45;;;;;;;;;;5075501;28;20016;-27
2024/01/30 11:00:26;;;;;;;15.93;4.22;;;;;;;;;;5075428;28;20021;-28
2024/01/30 11:02:51;;;;;;;14.07;4.65;;;;;;;;;;5075525;28;20048;-27
2024/01/30 11:05:23;;;;;;;13.13;3.63;;;;;;;;;;5075714;28;20023;-28
2024/01/30 11:07:48;;;;;;;9.73;3.53;;;;;;;;;;5075238;28;20021;-27
2024/01/30 11:10:15;;;;;;;8.75;2.92;;;;;;;;;;5075615;28;20087;-27
2024/01/30 11:12:44;;;;;;;10.93;2.95;;;;;;;;;;5075405;28;20424;-28
2024/01/30 11:15:10;;;;;;;9.70;2.67;;;;;;;;;;5075358;28;20531;-28
2024/01/30 11:17:41;;;;;;;9.35;2.58;;;;;;;;;;5075589;28;20021;-27
2024/01/30 11:20:09;;;;;;;7.75;2.72;;;;;;;;;;5075569;28;20035;-27
2024/01/30 11:22:35;;;;;;;7.72;2.85;;;;;;;;;;5075026;28;20028;-27
2024/01/30 11:25:03;;;;;;;9.77;3.40;;;;;;;;;;5075126;28;20012;-27
2024/01/30 11:27:28;;;;;;;8.85;3.15;;;;;;;;;;5074834;28;20024;-27
2024/01/30 11:29:53;;;;;;;6.97;3.20;;;;;;;;;;5074815;28;20066;-27
2024/01/30 11:32:23;;;;;;;9.95;3.10;;;;;;;;;;5075356;28;20266;-27
2024/01/30 11:34:49;;;;;;;7.85;3.90;;;;;;;;;;5074744;28;20058;-27
2024/01/30 11:37:15;;;;;;;6.65;3.53;;;;;;;;;;5074741;28;20107;-27
2024/01/30 11:39:41;;;;;;;9.30;3.95;;;;;;;;;;5075448;28;20373;-27
2024/01/30 11:42:07;;;;;;;9.00;3.78;;;;;;;;;;5074425;28;20017;-27
2024/01/30 11:44:33;;;;;;;7.65;3.85;;;;;;;;;;5074589;28;20021;-27
2024/01/30 11:46:58;;;;;;;7.63;3.90;;;;;;;;;;5074654;28;20025;-27
2024/01/30 11:49:23;;;;;;;10.60;3.73;;;;;;;;;;5074712;28;20563;-27
2024/01/30 11:51:49;;;;;;;10.07;4.13;;;;;;;;;;5074375;28;20312;-27
2024/01/30 11:54:14;;;;;;;7.18;3.03;;;;;;;;;;5073410;28;20123;-27
2024/01/30 11:56:39;;;;;;;8.52;2.70;;;;;;;;;;5074495;28;20073;-28
2024/01/30 11:59:05;;;;;;;6.57;2.50;;;;;;;;;;5074870;28;20040;-28
2024/01/30 12:01:31;;;;;;;4.70;2.50;;;;;;;;;;5074249;28;20328;-27
2024/01/30 12:03:56;;;;;;;8.90;2.30;;;;;;;;;;5073993;28;20381;-27
2024/01/30 12:06:22;;;;;;;7.80;2.10;;;;;;;;;;5074721;28;20495;-27
2024/01/30 12:09:00;;;;;;;6.27;1.87;;;;;;;;;;5074264;28;20379;-28
2024/01/30 12:11:26;;;;;;;6.53;1.80;;;;;;;;;;5074310;28;20594;-27
2024/01/30 12:13:52;;;;;;;6.35;1.88;;;;;;;;;;5074224;28;20089;-27
2024/01/30 12:16:18;;;;;;;8.77;1.85;;;;;;;;;;5074519;28;20020;-28
2024/01/30 12:18:43;;;;;;;9.07;1.85;;;;;;;;;;5073938;28;20353;-28
2024/01/30 12:21:08;;;;;;;7.57;1.57;;;;;;;;;;5074469;28;20024;-27
2024/01/30 12:23:34;;;;;;;5.43;1.40;;;;;;;;;;5074153;28;20259;-27
2024/01/30 12:26:01;;;;;;;6.80;1.55;;;;;;;;;;5073786;28;20087;-27
2024/01/30 12:28:26;;;;;;;4.30;1.42;;;;;;;;;;5074003;28;20031;-27
2024/01/30 12:30:55;;;;;;;8.52;1.48;;;;;;;;;;5074268;28;20371;-27
2024/01/30 12:33:20;;;;;;;4.60;1.58;;;;;;;;;;5074024;28;20375;-27
2024/01/30 12:35:47;;;;;;;4.55;1.48;;;;;;;;;;5073963;28;20104;-27
2024/01/30 12:38:12;;;;;;;7.03;1.60;;;;;;;;;;5073469;28;20052;-27
2024/01/30 12:40:37;;;;;;;7.70;1.75;;;;;;;;;;5073838;28;20067;-27
2024/01/30 12:43:03;;;;;;;7.00;1.80;;;;;;;;;;5073663;28;20451;-27
2024/01/30 12:45:28;;;;;;;4.82;1.63;;;;;;;;;;5073832;28;20308;-27
2024/01/30 12:47:53;;;;;;;3.87;1.40;;;;;;;;;;5073516;28;20379;-27
2024/01/30 12:50:19;;;;;;;7.83;1.57;;;;;;;;;;5073972;28;20262;-27
2024/01/30 12:52:44;;;;;;;6.15;1.40;;;;;;;;;;5073780;28;20649;-27
2024/01/30 12:55:09;;;;;;;7.68;1.83;;;;;;;;;;5073767;28;20517;-27
2024/01/30 12:57:34;;;;;;;6.17;1.67;;;;;;;;;;5073439;28;20016;-27
2024/01/30 12:59:59;;;;;;;7.72;2.10;;;;;;;;;;5073339;28;20255;-27
2024/01/30 13:02:26;;;;;;;9.33;1.80;;;;;;;;;;5073699;28;20041;-27
2024/01/30 13:04:51;;;;;;;9.93;2.17;;;;;;;;;;5073064;28;20255;-27
2024/01/30 13:07:17;;;;;;;6.68;1.90;;;;;;;;;;5073224;28;20023;-27
2024/01/30 13:09:42;;;;;;;7.43;1.90;;;;;;;;;;5073243;28;20097;-27
2024/01/30 13:12:07;;;;;;;10.07;2.13;;;;;;;;;;5073469;28;20108;-27
2024/01/30 13:14:32;;;;;;;6.07;1.83;;;;;;;;;;5073156;28;20029;-27
2024/01/30 13:16:58;;;;;;;4.00;1.77;;;;;;;;;;5073173;28;20416;-27
2024/01/30 13:19:23;;;;;;;12.45;2.22;;;;;;;;;;5073222;28;20270;-27
2024/01/30 13:21:48;;;;;;;6.00;2.13;;;;;;;;;;5073208;28;20017;-27
2024/01/30 13:24:13;;;;;;;8.73;2.00;;;;;;;;;;5073177;28;20258;-27
2024/01/30 13:26:39;;;;;;;12.40;2.20;;;;;;;;;;5073538;28;20349;-27
2024/01/30 13:29:04;;;;;;;9.77;2.33;;;;;;;;;;5073373;28;20048;-27
2024/01/30 13:31:29;;;;;;;8.02;1.90;;;;;;;;;;5073242;28;20017;-27
2024/01/30 13:33:55;;;;;;;9.73;2.03;;;;;;;;;;5073260;28;20069;-27
2024/01/30 13:36:20;;;;;;;5.20;1.80;;;;;;;;;;5073470;28;20028;-27
2024/01/30 13:38:46;;;;;;;5.45;2.13;;;;;;;;;;5073520;28;20082;-27
2024/01/30 13:41:11;;;;;;;8.80;2.30;;;;;;;;;;5072981;28;20020;-27
2024/01/30 13:43:37;;;;;;;6.10;2.53;;;;;;;;;;5073414;28;20024;-27
2024/01/30 13:46:03;;;;;;;8.90;2.95;;;;;;;;;;5072907;28;20803;-27
2024/01/30 13:48:29;;;;;;;12.55;2.70;;;;;;;;;;5073871;28;20048;-27
2024/01/30 13:50:54;;;;;;;7.35;2.40;;;;;;;;;;5072871;28;20091;-27
2024/01/30 13:53:19;;;;;;;7.78;2.55;;;;;;;;;;5072848;28;20063;-27
2024/01/30 13:55:45;;;;;;;6.80;2.60;;;;;;;;;;5073439;28;20100;-27
2024/01/30 13:58:10;;;;;;;5.30;2.85;;;;;;;;;;5073095;28;20644;-28
2024/01/30 14:00:35;;;;;;;5.60;2.80;;;;;;;;;;5072780;28;20551;-27
2024/01/30 14:03:01;;;;;;;4.13;2.17;;;;;;;;;;5072489;28;20282;-27
2024/01/30 14:05:27;;;;;;;7.15;2.75;;;;;;;;;;5073083;28;20025;-27
2024/01/30 14:07:53;;;;;;;6.32;2.53;;;;;;;;;;5072986;28;20383;-27
2024/01/30 14:10:18;;;;;;;9.68;2.80;;;;;;;;;;5072692;28;20042;-27
2024/01/30 14:12:44;;;;;;;4.90;2.50;;;;;;;;;;5072916;28;20368;-27
2024/01/30 14:15:12;;;;;;;7.43;3.22;;;;;;;;;;5072573;28;20025;-27
2024/01/30 14:17:38;;;;;;;7.78;3.20;;;;;;;;;;5074987;28;20026;-27
2024/01/30 14:20:04;;;;;;;5.35;3.10;;;;;;;;;;5076525;28;20454;-27